sensor_id;sensor_type;location;lat;lon;timestamp;P1;durP1;ratioP1;P2;durP2;ratioP2
43606;SDS011;29197;44.788;10.366;2022-11-04T00:00:20;103.38;;;51.15;;
43606;SDS011;29197;44.788;10.366;2022-11-04T00:03:15;116.75;;;64.22;;
43606;SDS011;29197;44.788;10.366;2022-11-04T00:06:06;116.88;;;60.20;;
43606;SDS011;29197;44.788;10.366;2022-11-04T00:08:56;109.43;;;50.33;;
43606;SDS011;29197;44.788;10.366;2022-11-04T00:11:46;100.25;;;45.83;;
43606;SDS011;29197;44.788;10.366;2022-11-04T00:14:52;102.25;;;47.08;;
43606;SDS011;29197;44.788;10.366;2022-11-04T00:18:01;104.78;;;48.28;;
43606;SDS011;29197;44.788;10.366;2022-11-04T00:20:49;101.82;;;46.35;;
43606;SDS011;29197;44.788;10.366;2022-11-04T00:23:57;100.93;;;45.72;;
43606;SDS011;29197;44.788;10.366;2022-11-04T00:27:04;97.43;;;46.83;;
43606;SDS011;29197;44.788;10.366;2022-11-04T00:30:10;112.88;;;49.60;;
43606;SDS011;29197;44.788;10.366;2022-11-04T00:32:59;92.97;;;44.67;;
43606;SDS011;29197;44.788;10.366;2022-11-04T00:36:05;97.63;;;45.50;;
43606;SDS011;29197;44.788;10.366;2022-11-04T00:38:54;92.30;;;45.53;;
43606;SDS011;29197;44.788;10.366;2022-11-04T00:41:44;97.43;;;45.00;;
43606;SDS011;29197;44.788;10.366;2022-11-04T00:44:34;90.03;;;43.83;;
43606;SDS011;29197;44.788;10.366;2022-11-04T00:47:23;97.60;;;46.90;;
43606;SDS011;29197;44.788;10.366;2022-11-04T00:50:12;93.72;;;45.15;;
43606;SDS011;29197;44.788;10.366;2022-11-04T00:53:02;92.18;;;45.08;;
43606;SDS011;29197;44.788;10.366;2022-11-04T00:55:51;82.60;;;43.17;;
43606;SDS011;29197;44.788;10.366;2022-11-04T00:58:42;85.57;;;42.67;;
43606;SDS011;29197;44.788;10.366;2022-11-04T01:01:31;90.82;;;44.65;;
43606;SDS011;29197;44.788;10.366;2022-11-04T01:04:21;92.28;;;44.08;;
43606;SDS011;29197;44.788;10.366;2022-11-04T01:07:10;81.07;;;42.65;;
43606;SDS011;29197;44.788;10.366;2022-11-04T01:10:00;96.70;;;45.05;;
43606;SDS011;29197;44.788;10.366;2022-11-04T01:12:50;97.70;;;45.40;;
43606;SDS011;29197;44.788;10.366;2022-11-04T01:15:41;102.97;;;45.10;;
43606;SDS011;29197;44.788;10.366;2022-11-04T01:18:31;88.78;;;44.47;;
43606;SDS011;29197;44.788;10.366;2022-11-04T01:21:20;90.63;;;43.75;;
43606;SDS011;29197;44.788;10.366;2022-11-04T01:24:09;92.68;;;44.35;;
43606;SDS011;29197;44.788;10.366;2022-11-04T01:26:59;91.85;;;44.67;;
43606;SDS011;29197;44.788;10.366;2022-11-04T01:29:48;93.00;;;44.40;;
43606;SDS011;29197;44.788;10.366;2022-11-04T01:32:38;96.35;;;45.88;;
43606;SDS011;29197;44.788;10.366;2022-11-04T01:35:27;92.65;;;44.58;;
43606;SDS011;29197;44.788;10.366;2022-11-04T01:38:17;95.38;;;45.53;;
43606;SDS011;29197;44.788;10.366;2022-11-04T01:41:07;95.05;;;46.70;;
43606;SDS011;29197;44.788;10.366;2022-11-04T01:43:57;95.07;;;47.15;;
43606;SDS011;29197;44.788;10.366;2022-11-04T01:46:48;94.05;;;45.53;;
43606;SDS011;29197;44.788;10.366;2022-11-04T01:49:41;99.82;;;45.85;;
43606;SDS011;29197;44.788;10.366;2022-11-04T01:52:34;97.53;;;46.30;;
43606;SDS011;29197;44.788;10.366;2022-11-04T01:55:30;103.20;;;48.90;;
43606;SDS011;29197;44.788;10.366;2022-11-04T01:58:22;101.43;;;47.85;;
43606;SDS011;29197;44.788;10.366;2022-11-04T02:01:16;101.35;;;47.70;;
43606;SDS011;29197;44.788;10.366;2022-11-04T02:04:07;102.60;;;48.58;;
43606;SDS011;29197;44.788;10.366;2022-11-04T02:07:13;104.40;;;47.63;;
43606;SDS011;29197;44.788;10.366;2022-11-04T06:52:11;1.80;;;0.20;;
43606;SDS011;29197;44.788;10.366;2022-11-04T06:55:01;1.73;;;0.67;;
43606;SDS011;29197;44.788;10.366;2022-11-04T06:57:50;0.67;;;0.47;;
43606;SDS011;29197;44.788;10.366;2022-11-04T07:00:39;1.67;;;0.50;;
43606;SDS011;29197;44.788;10.366;2022-11-04T07:03:28;1.30;;;0.33;;
43606;SDS011;29197;44.788;10.366;2022-11-04T07:06:18;0.50;;;0.40;;
43606;SDS011;29197;44.788;10.366;2022-11-04T07:09:10;0.63;;;0.30;;
43606;SDS011;29197;44.788;10.366;2022-11-04T07:12:01;1.60;;;0.63;;
43606;SDS011;29197;44.788;10.366;2022-11-04T07:14:49;0.50;;;0.50;;
43606;SDS011;29197;44.788;10.366;2022-11-04T07:17:39;1.60;;;0.30;;
43606;SDS011;29197;44.788;10.366;2022-11-04T07:20:30;0.50;;;0.30;;
43606;SDS011;29197;44.788;10.366;2022-11-04T07:23:19;1.90;;;0.30;;
43606;SDS011;29197;44.788;10.366;2022-11-04T07:26:10;0.25;;;0.20;;
43606;SDS011;29197;44.788;10.366;2022-11-04T07:28:59;0.20;;;0.20;;
43606;SDS011;29197;44.788;10.366;2022-11-04T07:31:48;0.60;;;0.45;;
43606;SDS011;29197;44.788;10.366;2022-11-04T07:34:37;0.73;;;0.30;;
43606;SDS011;29197;44.788;10.366;2022-11-04T07:37:26;1.63;;;0.30;;
43606;SDS011;29197;44.788;10.366;2022-11-04T07:40:15;0.20;;;0.20;;
43606;SDS011;29197;44.788;10.366;2022-11-04T07:43:06;0.20;;;0.20;;
43606;SDS011;29197;44.788;10.366;2022-11-04T07:45:58;0.93;;;0.47;;
43606;SDS011;29197;44.788;10.366;2022-11-04T07:48:48;1.33;;;0.28;;
43606;SDS011;29197;44.788;10.366;2022-11-04T07:51:38;1.73;;;0.10;;
43606;SDS011;29197;44.788;10.366;2022-11-04T07:54:26;0.35;;;0.20;;
43606;SDS011;29197;44.788;10.366;2022-11-04T07:57:16;0.43;;;0.20;;
43606;SDS011;29197;44.788;10.366;2022-11-04T08:00:08;0.15;;;0.10;;
43606;SDS011;29197;44.788;10.366;2022-11-04T08:02:59;0.20;;;0.20;;
43606;SDS011;29197;44.788;10.366;2022-11-04T08:05:53;0.20;;;0.20;;
43606;SDS011;29197;44.788;10.366;2022-11-04T08:08:43;2.38;;;0.30;;
43606;SDS011;29197;44.788;10.366;2022-11-04T08:11:34;1.27;;;0.50;;
43606;SDS011;29197;44.788;10.366;2022-11-04T08:14:23;1.47;;;0.43;;
43606;SDS011;29197;44.788;10.366;2022-11-04T08:17:13;0.30;;;0.30;;
43606;SDS011;29197;44.788;10.366;2022-11-04T08:20:03;0.40;;;0.40;;
43606;SDS011;29197;44.788;10.366;2022-11-04T08:22:52;1.65;;;0.20;;
43606;SDS011;29197;44.788;10.366;2022-11-04T08:25:41;0.20;;;0.20;;
43606;SDS011;29197;44.788;10.366;2022-11-04T08:28:31;0.45;;;0.40;;
43606;SDS011;29197;44.788;10.366;2022-11-04T08:31:21;1.48;;;1.00;;
43606;SDS011;29197;44.788;10.366;2022-11-04T08:34:13;0.38;;;0.22;;
43606;SDS011;29197;44.788;10.366;2022-11-04T08:37:04;0.10;;;0.10;;
43606;SDS011;29197;44.788;10.366;2022-11-04T08:39:54;0.88;;;0.30;;
43606;SDS011;29197;44.788;10.366;2022-11-04T08:42:43;1.10;;;0.30;;
43606;SDS011;29197;44.788;10.366;2022-11-04T08:45:32;0.28;;;0.20;;
43606;SDS011;29197;44.788;10.366;2022-11-04T08:48:21;2.85;;;0.20;;
43606;SDS011;29197;44.788;10.366;2022-11-04T08:51:13;0.75;;;0.30;;
43606;SDS011;29197;44.788;10.366;2022-11-04T08:54:04;0.32;;;0.20;;
43606;SDS011;29197;44.788;10.366;2022-11-04T08:56:53;0.30;;;0.22;;
43606;SDS011;29197;44.788;10.366;2022-11-04T08:59:42;1.00;;;0.20;;
43606;SDS011;29197;44.788;10.366;2022-11-04T09:02:31;0.10;;;0.10;;
43606;SDS011;29197;44.788;10.366;2022-11-04T09:05:20;0.10;;;0.10;;
43606;SDS011;29197;44.788;10.366;2022-11-04T09:08:10;0.00;;;0.00;;
43606;SDS011;29197;44.788;10.366;2022-11-04T09:10:59;0.38;;;0.10;;
43606;SDS011;29197;44.788;10.366;2022-11-04T09:13:48;0.20;;;0.20;;
43606;SDS011;29197;44.788;10.366;2022-11-04T09:16:38;0.10;;;0.03;;
43606;SDS011;29197;44.788;10.366;2022-11-04T09:19:29;0.15;;;0.13;;
43606;SDS011;29197;44.788;10.366;2022-11-04T09:22:18;0.10;;;0.08;;
43606;SDS011;29197;44.788;10.366;2022-11-04T09:25:09;0.28;;;0.13;;
43606;SDS011;29197;44.788;10.366;2022-11-04T09:27:58;0.10;;;0.10;;
43606;SDS011;29197;44.788;10.366;2022-11-04T09:30:47;0.38;;;0.30;;
43606;SDS011;29197;44.788;10.366;2022-11-04T09:33:36;0.30;;;0.10;;
43606;SDS011;29197;44.788;10.366;2022-11-04T09:36:25;0.10;;;0.00;;
43606;SDS011;29197;44.788;10.366;2022-11-04T09:39:15;0.10;;;0.10;;
43606;SDS011;29197;44.788;10.366;2022-11-04T09:45:25;0.90;;;0.00;;
43606;SDS011;29197;44.788;10.366;2022-11-04T09:48:18;1.10;;;0.05;;
43606;SDS011;29197;44.788;10.366;2022-11-04T09:51:09;0.28;;;0.10;;
43606;SDS011;29197;44.788;10.366;2022-11-04T09:54:19;0.00;;;0.00;;
43606;SDS011;29197;44.788;10.366;2022-11-04T09:57:12;0.10;;;0.10;;
43606;SDS011;29197;44.788;10.366;2022-11-04T10:00:09;0.00;;;0.00;;
43606;SDS011;29197;44.788;10.366;2022-11-04T10:03:07;0.10;;;0.10;;
43606;SDS011;29197;44.788;10.366;2022-11-04T10:06:11;0.10;;;0.03;;
43606;SDS011;29197;44.788;10.366;2022-11-04T10:09:17;0.00;;;0.00;;
43606;SDS011;29197;44.788;10.366;2022-11-04T10:12:21;0.30;;;0.20;;
43606;SDS011;29197;44.788;10.366;2022-11-04T10:15:32;0.20;;;0.17;;
43606;SDS011;29197;44.788;10.366;2022-11-04T10:18:41;0.85;;;0.10;;
43606;SDS011;29197;44.788;10.366;2022-11-04T10:21:44;0.10;;;0.10;;
43606;SDS011;29197;44.788;10.366;2022-11-04T10:24:41;0.00;;;0.00;;
43606;SDS011;29197;44.788;10.366;2022-11-04T10:27:36;0.10;;;0.10;;
43606;SDS011;29197;44.788;10.366;2022-11-04T10:30:30;0.15;;;0.10;;
43606;SDS011;29197;44.788;10.366;2022-11-04T10:33:23;0.20;;;0.20;;
43606;SDS011;29197;44.788;10.366;2022-11-04T10:36:16;0.10;;;0.10;;
43606;SDS011;29197;44.788;10.366;2022-11-04T10:39:08;0.28;;;0.10;;
43606;SDS011;29197;44.788;10.366;2022-11-04T10:42:03;0.10;;;0.10;;
43606;SDS011;29197;44.788;10.366;2022-11-04T10:44:53;0.17;;;0.10;;
43606;SDS011;29197;44.788;10.366;2022-11-04T10:47:45;3.00;;;0.03;;
43606;SDS011;29197;44.788;10.366;2022-11-04T10:50:39;1.02;;;0.10;;
43606;SDS011;29197;44.788;10.366;2022-11-04T10:53:34;0.10;;;0.10;;
43606;SDS011;29197;44.788;10.366;2022-11-04T10:56:27;0.30;;;0.10;;
43606;SDS011;29197;44.788;10.366;2022-11-04T10:59:23;1.55;;;0.10;;
43606;SDS011;29197;44.788;10.366;2022-11-04T11:02:15;0.10;;;0.10;;
43606;SDS011;29197;44.788;10.366;2022-11-04T11:05:20;0.13;;;0.10;;
43606;SDS011;29197;44.788;10.366;2022-11-04T11:08:14;0.10;;;0.10;;
43606;SDS011;29197;44.788;10.366;2022-11-04T11:11:33;0.00;;;0.00;;
43606;SDS011;29197;44.788;10.366;2022-11-04T11:14:33;0.00;;;0.00;;
43606;SDS011;29197;44.788;10.366;2022-11-04T11:17:24;0.10;;;0.10;;
43606;SDS011;29197;44.788;10.366;2022-11-04T11:20:25;0.28;;;0.10;;
43606;SDS011;29197;44.788;10.366;2022-11-04T11:23:32;0.35;;;0.10;;
43606;SDS011;29197;44.788;10.366;2022-11-04T11:26:28;0.17;;;0.10;;
43606;SDS011;29197;44.788;10.366;2022-11-04T11:29:20;0.65;;;0.30;;
43606;SDS011;29197;44.788;10.366;2022-11-04T11:32:16;0.13;;;0.08;;
43606;SDS011;29197;44.788;10.366;2022-11-04T11:35:14;0.10;;;0.10;;
43606;SDS011;29197;44.788;10.366;2022-11-04T11:38:05;0.08;;;0.00;;
43606;SDS011;29197;44.788;10.366;2022-11-04T11:41:05;0.20;;;0.20;;
43606;SDS011;29197;44.788;10.366;2022-11-04T11:44:17;0.32;;;0.20;;
43606;SDS011;29197;44.788;10.366;2022-11-04T11:47:17;3.45;;;0.32;;
43606;SDS011;29197;44.788;10.366;2022-11-04T11:50:13;0.00;;;0.00;;
43606;SDS011;29197;44.788;10.366;2022-11-04T11:53:11;0.00;;;0.00;;
43606;SDS011;29197;44.788;10.366;2022-11-04T11:56:05;2.17;;;0.20;;
43606;SDS011;29197;44.788;10.366;2022-11-04T11:59:03;0.10;;;0.10;;
43606;SDS011;29197;44.788;10.366;2022-11-04T12:02:21;0.10;;;0.10;;
43606;SDS011;29197;44.788;10.366;2022-11-04T12:05:15;0.20;;;0.20;;
43606;SDS011;29197;44.788;10.366;2022-11-04T12:12:02;0.15;;;0.10;;
43606;SDS011;29197;44.788;10.366;2022-11-04T12:15:14;0.10;;;0.10;;
43606;SDS011;29197;44.788;10.366;2022-11-04T12:18:27;0.82;;;0.22;;
43606;SDS011;29197;44.788;10.366;2022-11-04T12:21:19;5.38;;;0.25;;
43606;SDS011;29197;44.788;10.366;2022-11-04T12:24:18;0.05;;;0.05;;
43606;SDS011;29197;44.788;10.366;2022-11-04T12:27:16;0.30;;;0.10;;
43606;SDS011;29197;44.788;10.366;2022-11-04T12:30:13;0.20;;;0.20;;
43606;SDS011;29197;44.788;10.366;2022-11-04T12:33:15;0.10;;;0.10;;
43606;SDS011;29197;44.788;10.366;2022-11-04T12:36:10;0.15;;;0.15;;
43606;SDS011;29197;44.788;10.366;2022-11-04T12:39:07;0.10;;;0.10;;
43606;SDS011;29197;44.788;10.366;2022-11-04T12:42:03;0.47;;;0.20;;
43606;SDS011;29197;44.788;10.366;2022-11-04T12:45:19;0.10;;;0.10;;
43606;SDS011;29197;44.788;10.366;2022-11-04T12:48:11;0.10;;;0.10;;
43606;SDS011;29197;44.788;10.366;2022-11-04T13:05:23;0.17;;;0.17;;
43606;SDS011;29197;44.788;10.366;2022-11-04T13:08:17;0.35;;;0.10;;
43606;SDS011;29197;44.788;10.366;2022-11-04T13:11:09;0.20;;;0.10;;
43606;SDS011;29197;44.788;10.366;2022-11-04T13:14:11;0.20;;;0.10;;
43606;SDS011;29197;44.788;10.366;2022-11-04T13:17:05;0.00;;;0.00;;
43606;SDS011;29197;44.788;10.366;2022-11-04T13:19:57;0.10;;;0.10;;
43606;SDS011;29197;44.788;10.366;2022-11-04T13:22:50;0.20;;;0.10;;
43606;SDS011;29197;44.788;10.366;2022-11-04T13:25:48;1.77;;;0.20;;
43606;SDS011;29197;44.788;10.366;2022-11-04T13:28:38;0.08;;;0.05;;
43606;SDS011;29197;44.788;10.366;2022-11-04T13:31:29;0.20;;;0.10;;
43606;SDS011;29197;44.788;10.366;2022-11-04T13:34:23;0.17;;;0.10;;
43606;SDS011;29197;44.788;10.366;2022-11-04T13:37:20;0.60;;;0.20;;
43606;SDS011;29197;44.788;10.366;2022-11-04T13:40:14;0.17;;;0.17;;
43606;SDS011;29197;44.788;10.366;2022-11-04T13:43:08;1.65;;;0.32;;
43606;SDS011;29197;44.788;10.366;2022-11-04T13:46:19;2.35;;;0.20;;
43606;SDS011;29197;44.788;10.366;2022-11-04T13:49:14;0.08;;;0.08;;
43606;SDS011;29197;44.788;10.366;2022-11-04T13:52:06;0.10;;;0.10;;
43606;SDS011;29197;44.788;10.366;2022-11-04T13:54:58;0.05;;;0.05;;
43606;SDS011;29197;44.788;10.366;2022-11-04T13:57:52;0.22;;;0.10;;
43606;SDS011;29197;44.788;10.366;2022-11-04T14:00:57;0.10;;;0.10;;
43606;SDS011;29197;44.788;10.366;2022-11-04T14:04:00;0.05;;;0.05;;
43606;SDS011;29197;44.788;10.366;2022-11-04T14:07:05;0.08;;;0.05;;
43606;SDS011;29197;44.788;10.366;2022-11-04T14:09:56;0.50;;;0.20;;
43606;SDS011;29197;44.788;10.366;2022-11-04T14:12:46;0.63;;;0.17;;
43606;SDS011;29197;44.788;10.366;2022-11-04T14:18:49;0.10;;;0.10;;
43606;SDS011;29197;44.788;10.366;2022-11-04T14:24:54;0.30;;;0.10;;
43606;SDS011;29197;44.788;10.366;2022-11-04T14:27:44;1.10;;;0.22;;
43606;SDS011;29197;44.788;10.366;2022-11-04T14:30:45;0.43;;;0.20;;
43606;SDS011;29197;44.788;10.366;2022-11-04T14:33:39;0.50;;;0.20;;
43606;SDS011;29197;44.788;10.366;2022-11-04T14:36:39;0.50;;;0.20;;
43606;SDS011;29197;44.788;10.366;2022-11-04T14:39:30;0.10;;;0.10;;
43606;SDS011;29197;44.788;10.366;2022-11-04T14:42:41;0.30;;;0.30;;
43606;SDS011;29197;44.788;10.366;2022-11-04T14:45:38;0.35;;;0.20;;
43606;SDS011;29197;44.788;10.366;2022-11-04T14:48:27;0.60;;;0.17;;
43606;SDS011;29197;44.788;10.366;2022-11-04T14:51:24;0.47;;;0.30;;
43606;SDS011;29197;44.788;10.366;2022-11-04T14:54:16;0.15;;;0.15;;
43606;SDS011;29197;44.788;10.366;2022-11-04T14:57:12;0.30;;;0.10;;
43606;SDS011;29197;44.788;10.366;2022-11-04T15:00:16;0.13;;;0.10;;
43606;SDS011;29197;44.788;10.366;2022-11-04T15:03:22;0.30;;;0.30;;
43606;SDS011;29197;44.788;10.366;2022-11-04T15:06:34;0.10;;;0.10;;
43606;SDS011;29197;44.788;10.366;2022-11-04T15:09:45;0.10;;;0.10;;
43606;SDS011;29197;44.788;10.366;2022-11-04T15:12:42;0.25;;;0.20;;
43606;SDS011;29197;44.788;10.366;2022-11-04T15:15:37;0.80;;;0.20;;
43606;SDS011;29197;44.788;10.366;2022-11-04T15:18:30;1.27;;;0.30;;
43606;SDS011;29197;44.788;10.366;2022-11-04T15:21:19;3.75;;;1.85;;
43606;SDS011;29197;44.788;10.366;2022-11-04T15:24:13;54.80;;;25.88;;
43606;SDS011;29197;44.788;10.366;2022-11-04T15:27:04;19.25;;;10.50;;
43606;SDS011;29197;44.788;10.366;2022-11-04T15:29:54;3.13;;;2.05;;
43606;SDS011;29197;44.788;10.366;2022-11-04T15:32:51;0.60;;;0.50;;
43606;SDS011;29197;44.788;10.366;2022-11-04T15:35:44;0.40;;;0.30;;
43606;SDS011;29197;44.788;10.366;2022-11-04T15:38:43;0.20;;;0.20;;
43606;SDS011;29197;44.788;10.366;2022-11-04T15:41:36;0.90;;;0.70;;
43606;SDS011;29197;44.788;10.366;2022-11-04T15:44:43;0.82;;;0.57;;
43606;SDS011;29197;44.788;10.366;2022-11-04T15:47:34;0.63;;;0.50;;
43606;SDS011;29197;44.788;10.366;2022-11-04T15:50:24;0.40;;;0.40;;
43606;SDS011;29197;44.788;10.366;2022-11-04T15:53:13;1.58;;;0.47;;
43606;SDS011;29197;44.788;10.366;2022-11-04T15:56:03;0.32;;;0.30;;
43606;SDS011;29197;44.788;10.366;2022-11-04T15:58:55;0.85;;;0.45;;
43606;SDS011;29197;44.788;10.366;2022-11-04T16:01:45;0.30;;;0.30;;
43606;SDS011;29197;44.788;10.366;2022-11-04T16:04:36;1.48;;;0.20;;
43606;SDS011;29197;44.788;10.366;2022-11-04T16:07:28;2.28;;;0.45;;
43606;SDS011;29197;44.788;10.366;2022-11-04T16:10:22;3.20;;;0.60;;
43606;SDS011;29197;44.788;10.366;2022-11-04T16:13:19;1.27;;;0.70;;
43606;SDS011;29197;44.788;10.366;2022-11-04T16:16:22;0.80;;;0.60;;
43606;SDS011;29197;44.788;10.366;2022-11-04T16:19:14;0.98;;;0.45;;
43606;SDS011;29197;44.788;10.366;2022-11-04T16:22:09;1.45;;;0.70;;
43606;SDS011;29197;44.788;10.366;2022-11-04T16:24:59;3.30;;;0.60;;
43606;SDS011;29197;44.788;10.366;2022-11-04T16:27:52;1.02;;;0.65;;
43606;SDS011;29197;44.788;10.366;2022-11-04T16:30:53;2.92;;;0.80;;
43606;SDS011;29197;44.788;10.366;2022-11-04T16:33:45;3.15;;;1.10;;
43606;SDS011;29197;44.788;10.366;2022-11-04T16:36:34;2.58;;;1.10;;
43606;SDS011;29197;44.788;10.366;2022-11-04T16:39:24;1.38;;;0.50;;
43606;SDS011;29197;44.788;10.366;2022-11-04T16:42:13;1.95;;;0.60;;
43606;SDS011;29197;44.788;10.366;2022-11-04T16:45:04;3.15;;;1.13;;
43606;SDS011;29197;44.788;10.366;2022-11-04T16:47:55;2.25;;;0.68;;
43606;SDS011;29197;44.788;10.366;2022-11-04T16:50:46;1.38;;;0.75;;
43606;SDS011;29197;44.788;10.366;2022-11-04T16:53:35;3.05;;;1.00;;
43606;SDS011;29197;44.788;10.366;2022-11-04T16:56:25;3.05;;;0.90;;
43606;SDS011;29197;44.788;10.366;2022-11-04T16:59:15;1.50;;;0.95;;
43606;SDS011;29197;44.788;10.366;2022-11-04T17:02:11;2.13;;;1.33;;
43606;SDS011;29197;44.788;10.366;2022-11-04T17:05:06;3.65;;;2.28;;
43606;SDS011;29197;44.788;10.366;2022-11-04T17:07:58;6.93;;;2.78;;
43606;SDS011;29197;44.788;10.366;2022-11-04T17:10:51;1.33;;;0.95;;
43606;SDS011;29197;44.788;10.366;2022-11-04T17:13:41;1.80;;;0.95;;
43606;SDS011;29197;44.788;10.366;2022-11-04T17:16:30;2.75;;;1.10;;
43606;SDS011;29197;44.788;10.366;2022-11-04T17:19:20;2.95;;;1.13;;
43606;SDS011;29197;44.788;10.366;2022-11-04T17:22:09;4.10;;;1.40;;
43606;SDS011;29197;44.788;10.366;2022-11-04T17:25:00;2.33;;;1.65;;
43606;SDS011;29197;44.788;10.366;2022-11-04T17:27:49;3.58;;;2.00;;
43606;SDS011;29197;44.788;10.366;2022-11-04T17:30:38;2.97;;;1.48;;
43606;SDS011;29197;44.788;10.366;2022-11-04T17:33:27;7.45;;;2.33;;
43606;SDS011;29197;44.788;10.366;2022-11-04T17:36:16;5.45;;;2.60;;
43606;SDS011;29197;44.788;10.366;2022-11-04T17:39:06;10.63;;;4.43;;
43606;SDS011;29197;44.788;10.366;2022-11-04T17:41:57;13.25;;;6.00;;
43606;SDS011;29197;44.788;10.366;2022-11-04T17:45:04;8.95;;;4.05;;
43606;SDS011;29197;44.788;10.366;2022-11-04T17:47:54;10.43;;;4.70;;
43606;SDS011;29197;44.788;10.366;2022-11-04T17:50:44;11.13;;;3.63;;
43606;SDS011;29197;44.788;10.366;2022-11-04T17:53:33;10.65;;;4.85;;
43606;SDS011;29197;44.788;10.366;2022-11-04T17:56:22;9.85;;;4.10;;
43606;SDS011;29197;44.788;10.366;2022-11-04T17:59:16;9.35;;;4.50;;
43606;SDS011;29197;44.788;10.366;2022-11-04T18:02:06;7.15;;;3.90;;
43606;SDS011;29197;44.788;10.366;2022-11-04T18:04:55;11.57;;;4.32;;
43606;SDS011;29197;44.788;10.366;2022-11-04T18:07:44;8.43;;;4.50;;
43606;SDS011;29197;44.788;10.366;2022-11-04T18:10:33;8.52;;;4.63;;
43606;SDS011;29197;44.788;10.366;2022-11-04T18:13:23;7.72;;;3.30;;
43606;SDS011;29197;44.788;10.366;2022-11-04T18:16:12;6.88;;;3.42;;
43606;SDS011;29197;44.788;10.366;2022-11-04T18:19:03;7.65;;;3.17;;
43606;SDS011;29197;44.788;10.366;2022-11-04T18:21:52;8.30;;;3.70;;
43606;SDS011;29197;44.788;10.366;2022-11-04T18:24:41;8.90;;;3.33;;
43606;SDS011;29197;44.788;10.366;2022-11-04T18:27:31;8.13;;;3.80;;
43606;SDS011;29197;44.788;10.366;2022-11-04T18:30:20;5.50;;;3.38;;
43606;SDS011;29197;44.788;10.366;2022-11-04T18:33:11;7.20;;;3.53;;
43606;SDS011;29197;44.788;10.366;2022-11-04T18:36:01;8.25;;;4.55;;
43606;SDS011;29197;44.788;10.366;2022-11-04T18:38:51;7.25;;;3.85;;
43606;SDS011;29197;44.788;10.366;2022-11-04T18:41:40;10.45;;;3.90;;
43606;SDS011;29197;44.788;10.366;2022-11-04T18:44:30;9.43;;;4.47;;
43606;SDS011;29197;44.788;10.366;2022-11-04T18:47:19;23.75;;;10.80;;
43606;SDS011;29197;44.788;10.366;2022-11-04T18:50:11;29.30;;;9.98;;
43606;SDS011;29197;44.788;10.366;2022-11-04T18:53:00;10.25;;;5.15;;
43606;SDS011;29197;44.788;10.366;2022-11-04T18:55:49;11.50;;;5.35;;
43606;SDS011;29197;44.788;10.366;2022-11-04T18:58:39;9.27;;;4.45;;
43606;SDS011;29197;44.788;10.366;2022-11-04T19:01:29;12.48;;;5.00;;
43606;SDS011;29197;44.788;10.366;2022-11-04T19:04:19;25.88;;;13.50;;
43606;SDS011;29197;44.788;10.366;2022-11-04T19:07:10;22.98;;;11.52;;
43606;SDS011;29197;44.788;10.366;2022-11-04T19:09:59;9.95;;;5.25;;
43606;SDS011;29197;44.788;10.366;2022-11-04T19:12:48;8.15;;;4.07;;
43606;SDS011;29197;44.788;10.366;2022-11-04T19:15:55;8.27;;;4.32;;
43606;SDS011;29197;44.788;10.366;2022-11-04T19:18:52;9.35;;;4.30;;
43606;SDS011;29197;44.788;10.366;2022-11-04T19:21:42;8.27;;;4.13;;
43606;SDS011;29197;44.788;10.366;2022-11-04T19:24:35;5.88;;;3.42;;
43606;SDS011;29197;44.788;10.366;2022-11-04T19:27:24;6.82;;;3.60;;
43606;SDS011;29197;44.788;10.366;2022-11-04T19:30:13;7.95;;;3.50;;
43606;SDS011;29197;44.788;10.366;2022-11-04T19:33:03;6.47;;;3.85;;
43606;SDS011;29197;44.788;10.366;2022-11-04T19:35:53;8.18;;;3.95;;
43606;SDS011;29197;44.788;10.366;2022-11-04T19:38:43;6.95;;;3.63;;
43606;SDS011;29197;44.788;10.366;2022-11-04T19:41:34;6.85;;;3.40;;
43606;SDS011;29197;44.788;10.366;2022-11-04T19:44:40;16.38;;;3.38;;
43606;SDS011;29197;44.788;10.366;2022-11-04T19:47:30;6.50;;;2.83;;
43606;SDS011;29197;44.788;10.366;2022-11-04T19:50:19;5.03;;;3.08;;
43606;SDS011;29197;44.788;10.366;2022-11-04T19:53:09;8.85;;;3.90;;
43606;SDS011;29197;44.788;10.366;2022-11-04T19:55:58;5.05;;;3.17;;
43606;SDS011;29197;44.788;10.366;2022-11-04T19:58:49;7.85;;;2.88;;
43606;SDS011;29197;44.788;10.366;2022-11-04T20:01:38;9.80;;;3.72;;
43606;SDS011;29197;44.788;10.366;2022-11-04T20:04:28;16.27;;;8.93;;
43606;SDS011;29197;44.788;10.366;2022-11-04T20:07:17;9.80;;;5.60;;
43606;SDS011;29197;44.788;10.366;2022-11-04T20:10:07;7.93;;;2.88;;
43606;SDS011;29197;44.788;10.366;2022-11-04T20:12:57;5.93;;;3.80;;
43606;SDS011;29197;44.788;10.366;2022-11-04T20:16:12;5.18;;;3.30;;
43606;SDS011;29197;44.788;10.366;2022-11-04T20:19:03;5.88;;;2.88;;
43606;SDS011;29197;44.788;10.366;2022-11-04T20:21:52;6.35;;;3.08;;
43606;SDS011;29197;44.788;10.366;2022-11-04T20:24:42;4.72;;;2.50;;
43606;SDS011;29197;44.788;10.366;2022-11-04T20:27:31;6.20;;;3.63;;
43606;SDS011;29197;44.788;10.366;2022-11-04T20:30:21;9.48;;;5.55;;
43606;SDS011;29197;44.788;10.366;2022-11-04T20:33:12;6.53;;;3.30;;
43606;SDS011;29197;44.788;10.366;2022-11-04T20:36:02;18.30;;;8.52;;
43606;SDS011;29197;44.788;10.366;2022-11-04T20:38:53;7.78;;;4.15;;
43606;SDS011;29197;44.788;10.366;2022-11-04T20:41:43;8.95;;;3.00;;
43606;SDS011;29197;44.788;10.366;2022-11-04T20:44:33;4.80;;;3.40;;
43606;SDS011;29197;44.788;10.366;2022-11-04T20:47:22;7.10;;;3.72;;
43606;SDS011;29197;44.788;10.366;2022-11-04T20:50:13;6.68;;;3.92;;
43606;SDS011;29197;44.788;10.366;2022-11-04T20:53:03;7.85;;;3.42;;
43606;SDS011;29197;44.788;10.366;2022-11-04T20:55:52;5.95;;;3.42;;
43606;SDS011;29197;44.788;10.366;2022-11-04T20:58:43;8.38;;;4.47;;
43606;SDS011;29197;44.788;10.366;2022-11-04T21:01:35;9.88;;;5.43;;
43606;SDS011;29197;44.788;10.366;2022-11-04T21:04:25;5.40;;;3.25;;
43606;SDS011;29197;44.788;10.366;2022-11-04T21:07:24;3.92;;;2.80;;
43606;SDS011;29197;44.788;10.366;2022-11-04T21:10:13;6.70;;;3.03;;
43606;SDS011;29197;44.788;10.366;2022-11-04T21:13:02;3.85;;;2.70;;
43606;SDS011;29197;44.788;10.366;2022-11-04T21:15:52;5.43;;;3.08;;
43606;SDS011;29197;44.788;10.366;2022-11-04T21:18:42;6.60;;;2.80;;
43606;SDS011;29197;44.788;10.366;2022-11-04T21:21:30;7.15;;;2.70;;
43606;SDS011;29197;44.788;10.366;2022-11-04T21:24:22;4.53;;;2.90;;
43606;SDS011;29197;44.788;10.366;2022-11-04T21:27:11;5.38;;;3.38;;
43606;SDS011;29197;44.788;10.366;2022-11-04T21:30:02;4.43;;;3.20;;
43606;SDS011;29197;44.788;10.366;2022-11-04T21:32:52;5.45;;;3.50;;
43606;SDS011;29197;44.788;10.366;2022-11-04T21:35:42;3.97;;;3.08;;
43606;SDS011;29197;44.788;10.366;2022-11-04T21:38:34;5.85;;;3.67;;
43606;SDS011;29197;44.788;10.366;2022-11-04T21:41:25;5.72;;;3.20;;
43606;SDS011;29197;44.788;10.366;2022-11-04T21:44:15;6.35;;;3.30;;
43606;SDS011;29197;44.788;10.366;2022-11-04T21:47:05;5.50;;;3.25;;
43606;SDS011;29197;44.788;10.366;2022-11-04T21:49:54;9.25;;;3.40;;
43606;SDS011;29197;44.788;10.366;2022-11-04T21:52:44;5.10;;;3.05;;
43606;SDS011;29197;44.788;10.366;2022-11-04T21:55:33;5.22;;;3.17;;
43606;SDS011;29197;44.788;10.366;2022-11-04T21:58:24;4.55;;;3.05;;
43606;SDS011;29197;44.788;10.366;2022-11-04T22:01:14;6.85;;;3.55;;
43606;SDS011;29197;44.788;10.366;2022-11-04T22:04:05;6.65;;;3.15;;
43606;SDS011;29197;44.788;10.366;2022-11-04T22:06:55;6.07;;;3.45;;
43606;SDS011;29197;44.788;10.366;2022-11-04T22:09:44;4.35;;;3.03;;
43606;SDS011;29197;44.788;10.366;2022-11-04T22:12:34;4.90;;;3.15;;